Aviation Digital Data Service (ADDS)

Output produced by METARs form (1652 UTC 21 January 2018)
found at http://aviationweather.gov/adds/metars/
 
KBUF 211504Z 2115/2212 22004KT 4SM BR BKN007 OVC026 
     FM211700 21005KT P6SM OVC012 
     FM220200 VRB03KT 3SM BR OVC012 
     FM220800 08004KT 3SM BR OVC012